createdAt,value
2023-04-01T00:00:14.558Z,5.04
2023-04-01T00:03:13.054Z,5.05
2023-04-01T00:05:43.551Z,5.05
2023-04-01T00:08:12.493Z,5.04
2023-04-01T00:10:47.042Z,5.03
2023-04-01T00:13:21.008Z,5.03
2023-04-01T00:16:21.062Z,5.02
2023-04-01T00:19:42.927Z,5.01
2023-04-01T00:22:12.967Z,4.98
2023-04-01T00:24:45.332Z,4.95
2023-04-01T00:27:39.325Z,4.91
2023-04-01T00:30:09.117Z,4.85
2023-04-01T00:32:38.048Z,4.81
2023-04-01T00:35:06.900Z,4.79
2023-04-01T00:37:38.087Z,4.75
2023-04-01T00:40:07.818Z,4.71
2023-04-01T00:42:38.591Z,4.70
2023-04-01T00:45:37.631Z,4.66
2023-04-01T00:49:04.634Z,4.63
2023-04-01T00:51:32.922Z,4.60
2023-04-01T00:54:03.002Z,4.57
2023-04-01T00:56:41.531Z,4.55
2023-04-01T01:00:02.136Z,4.55
2023-04-01T01:02:34.128Z,4.52
2023-04-01T01:09:08.653Z,4.45
2023-04-01T01:11:44.208Z,4.43
2023-04-01T01:14:38.629Z,4.41
2023-04-01T01:17:15.776Z,4.40
2023-04-01T01:19:57.208Z,4.40
2023-04-01T01:23:10.651Z,4.39
2023-04-01T01:26:34.716Z,4.39
2023-04-01T01:29:31.554Z,4.35
2023-04-01T01:32:08.567Z,4.32
2023-04-01T01:34:50.582Z,4.29
2023-04-01T01:37:45.055Z,4.26
2023-04-01T01:41:04.413Z,4.23
2023-04-01T01:43:35.611Z,4.19
2023-04-01T01:46:07.793Z,4.19
2023-04-01T01:48:36.677Z,4.19
2023-04-01T01:51:34.623Z,4.18
2023-04-01T01:54:30.663Z,4.17
2023-04-01T01:57:33.200Z,4.16
2023-04-01T02:00:14.855Z,4.16
2023-04-01T02:02:51.025Z,4.15
2023-04-01T02:08:53.115Z,4.13
2023-04-01T02:11:28.770Z,4.11
2023-04-01T02:14:04.829Z,4.10
2023-04-01T02:16:36.007Z,4.09
2023-04-01T02:19:09.349Z,4.08
2023-04-01T02:21:40.490Z,4.08
2023-04-01T02:24:11.259Z,4.08
2023-04-01T02:26:41.194Z,4.08
2023-04-01T02:29:09.562Z,4.07
2023-04-01T02:31:38.277Z,4.06
2023-04-01T02:34:06.635Z,4.06
2023-04-01T02:36:36.515Z,4.05
2023-04-01T02:39:29.062Z,4.05
2023-04-01T02:42:01.047Z,4.06
2023-04-01T02:44:32.904Z,4.05
2023-04-01T02:47:26.891Z,4.06
2023-04-01T02:49:59.866Z,4.06
2023-04-01T02:52:30.121Z,4.06
2023-04-01T02:54:59.712Z,4.07
2023-04-01T02:57:54.821Z,4.08
2023-04-01T03:00:53.383Z,4.09
2023-04-01T03:03:48.133Z,4.08
2023-04-01T03:06:16.573Z,4.07
2023-04-01T03:08:45.847Z,4.05
2023-04-01T03:11:39.849Z,4.03
2023-04-01T03:15:10.636Z,4.02
2023-04-01T03:17:42.226Z,4.01
2023-04-01T03:20:11.914Z,3.99
2023-04-01T03:22:42.964Z,3.97
2023-04-01T03:28:31.797Z,3.94
2023-04-01T03:31:04.454Z,3.92
2023-04-01T03:34:26.125Z,3.93
2023-04-01T03:36:55.884Z,3.91
2023-04-01T03:39:27.761Z,3.90
2023-04-01T03:41:56.916Z,3.90
2023-04-01T03:44:27.062Z,3.89
2023-04-01T03:46:55.948Z,3.89
2023-04-01T03:49:28.954Z,3.88
2023-04-01T03:52:26.359Z,3.88
2023-04-01T03:55:24.134Z,3.88
2023-04-01T03:58:17.962Z,3.87
2023-04-01T04:00:47.231Z,3.87
2023-04-01T04:03:19.181Z,3.87
2023-04-01T04:06:15.879Z,3.89
2023-04-01T04:09:10.025Z,3.91
2023-04-01T04:11:38.313Z,3.91
2023-04-01T04:14:06.839Z,3.91
2023-04-01T04:16:37.765Z,3.90
2023-04-01T04:19:35.388Z,3.91
2023-04-01T04:22:04.603Z,3.92
2023-04-01T04:25:02.215Z,3.91
2023-04-01T04:27:57.112Z,3.91
2023-04-01T04:30:55.917Z,3.89
2023-04-01T04:33:25.776Z,3.90
2023-04-01T04:35:57.086Z,3.90
2023-04-01T04:39:20.637Z,3.91
2023-04-01T04:41:49.524Z,3.91
2023-04-01T04:44:44.248Z,3.89
2023-04-01T04:47:12.729Z,3.89
2023-04-01T04:49:45.752Z,3.90
2023-04-01T04:52:17.197Z,3.92
2023-04-01T04:55:11.248Z,3.93
2023-04-01T04:57:40.464Z,3.94
2023-04-01T05:01:26.146Z,3.96
2023-04-01T05:04:20.199Z,4.01
2023-04-01T05:07:14.278Z,4.04
2023-04-01T05:10:16.433Z,4.06
2023-04-01T05:13:12.902Z,4.07
2023-04-01T05:15:46.825Z,4.07
2023-04-01T05:18:16.503Z,4.08
2023-04-01T05:21:37.084Z,4.09
2023-04-01T05:24:31.267Z,4.11
2023-04-01T05:27:24.945Z,4.11
2023-04-01T05:29:54.654Z,4.13
2023-04-01T05:33:02.723Z,4.14
2023-04-01T05:36:08.541Z,4.14
2023-04-01T05:38:38.500Z,4.18
2023-04-01T05:41:32.556Z,4.19
2023-04-01T05:44:25.917Z,4.20
2023-04-01T05:47:09.827Z,4.20
2023-04-01T05:50:31.313Z,4.20
2023-04-01T05:53:00.245Z,4.23
2023-04-01T05:55:30.602Z,4.26
2023-04-01T05:59:17.139Z,4.30
2023-04-01T06:01:46.523Z,4.34
2023-04-01T06:05:11.343Z,4.36
2023-04-01T06:08:20.413Z,4.37
2023-04-01T06:15:13.201Z,4.45
2023-04-01T06:18:24.757Z,4.47
2023-04-01T06:21:19.243Z,4.50
2023-04-01T06:28:23.190Z,4.60
2023-04-01T06:32:08.242Z,4.62
2023-04-01T06:34:48.487Z,4.65
2023-04-01T06:37:38.291Z,4.69
2023-04-01T06:40:11.050Z,4.74
2023-04-01T06:47:57.923Z,4.90
2023-04-01T06:51:37.743Z,4.94
2023-04-01T06:54:42.071Z,4.97
2023-04-01T06:57:58.111Z,5.01
2023-04-01T07:04:56.374Z,5.11
2023-04-01T07:11:36.439Z,5.21
2023-04-01T07:14:37.819Z,5.22
2023-04-01T07:17:58.341Z,5.25
2023-04-01T07:20:34.174Z,5.29
2023-04-01T07:23:56.509Z,5.30
2023-04-01T07:27:07.301Z,5.29
2023-04-01T07:29:37.836Z,5.28
2023-04-01T07:32:56.883Z,5.29
2023-04-01T07:36:29.360Z,5.36
2023-04-01T07:43:16.789Z,5.39
2023-04-01T07:47:32.685Z,5.39
2023-04-01T07:50:30.914Z,5.48
2023-04-01T07:53:44.225Z,5.56
2023-04-01T07:56:59.605Z,5.62
2023-04-01T07:59:48.637Z,5.66
2023-04-01T08:03:05.807Z,5.68
2023-04-01T08:06:03.030Z,5.73
2023-04-01T08:08:44.218Z,5.76
2023-04-01T08:12:16.496Z,5.82
2023-04-01T08:16:19.845Z,5.88
2023-04-01T08:19:13.934Z,5.95
2023-04-01T08:21:44.518Z,6.00
2023-04-01T08:24:31.763Z,6.02
2023-04-01T08:28:12.470Z,6.04
2023-04-01T08:38:31.165Z,6.18
2023-04-01T08:41:26.395Z,6.24
2023-04-01T08:44:53.590Z,6.38
2023-04-01T08:48:16.459Z,6.51
2023-04-01T08:51:24.411Z,6.61
2023-04-01T08:54:56.719Z,6.67
2023-04-01T08:57:59.154Z,6.71
2023-04-01T09:01:32.487Z,6.79
2023-04-01T09:04:26.045Z,6.88
2023-04-01T09:07:06.053Z,6.98
2023-04-01T09:09:35.722Z,7.05
2023-04-01T09:12:19.457Z,7.10
2023-04-01T09:15:09.216Z,7.14
2023-04-01T09:18:40.744Z,7.18
2023-04-01T09:22:26.032Z,7.14
2023-04-01T09:25:53.769Z,7.08
2023-04-01T09:28:34.778Z,7.03
2023-04-01T09:35:46.736Z,7.02
2023-04-01T09:38:47.592Z,6.97
2023-04-01T09:42:06.975Z,6.93
2023-04-01T09:53:25.047Z,6.80
2023-04-01T10:01:01.227Z,6.77
2023-04-01T10:08:25.612Z,6.74
2023-04-01T10:11:46.117Z,6.70
2023-04-01T10:14:57.916Z,6.66
2023-04-01T10:17:52.150Z,6.66
2023-04-01T10:20:32.826Z,6.63
2023-04-01T10:26:49.198Z,6.69
2023-04-01T10:30:17.796Z,6.75
2023-04-01T10:33:52.092Z,6.80
2023-04-01T10:36:39.471Z,6.83
2023-04-01T10:39:59.289Z,6.87
2023-04-01T10:43:17.967Z,6.93
2023-04-01T10:46:42.370Z,6.97
2023-04-01T10:49:46.393Z,6.99
2023-04-01T10:52:46.474Z,7.01
2023-04-01T11:00:05.796Z,7.12
2023-04-01T11:03:21.951Z,7.12
2023-04-01T11:06:27.722Z,7.15
2023-04-01T11:09:08.896Z,7.21
2023-04-01T11:11:59.385Z,7.26
2023-04-01T11:15:20.610Z,7.31
2023-04-01T11:18:40.386Z,7.37
2023-04-01T11:21:54.760Z,7.38
2023-04-01T11:25:00.413Z,7.34
2023-04-01T11:29:02.485Z,7.35
2023-04-01T11:32:30.369Z,7.38
2023-04-01T11:35:31.188Z,7.41
2023-04-01T11:38:08.479Z,7.40
2023-04-01T11:45:42.504Z,7.40
2023-04-01T11:49:56.250Z,7.40
2023-04-01T11:53:06.512Z,7.40
2023-04-01T11:56:09.131Z,7.41
2023-04-01T11:59:41.623Z,7.41
2023-04-01T12:06:20.141Z,7.42
2023-04-01T12:09:43.316Z,7.44
2023-04-01T12:12:29.616Z,7.47
2023-04-01T12:15:20.305Z,7.49
2023-04-01T12:17:53.373Z,7.54
2023-04-01T12:20:44.801Z,7.57
2023-04-01T12:23:48.835Z,7.61
2023-04-01T12:26:52.544Z,7.65
2023-04-01T12:29:23.715Z,7.71
2023-04-01T12:32:49.229Z,7.76
2023-04-01T12:36:15.101Z,7.81
2023-04-01T12:42:44.474Z,7.84
2023-04-01T12:45:39.893Z,7.87
2023-04-01T12:48:59.639Z,7.89
2023-04-01T12:55:45.608Z,7.92
2023-04-01T12:58:47.163Z,7.93
2023-04-01T13:02:33.649Z,7.94
2023-04-01T13:05:14.847Z,7.99
2023-04-01T13:11:47.331Z,7.99
2023-04-01T13:14:44.124Z,7.98
2023-04-01T13:17:15.206Z,7.97
2023-04-01T13:24:17.324Z,7.96
2023-04-01T13:26:48.697Z,7.96
2023-04-01T13:30:10.706Z,7.95
2023-04-01T13:33:01.374Z,7.94
2023-04-01T13:35:45.305Z,7.95
2023-04-01T13:41:45.853Z,7.99
2023-04-01T13:44:35.122Z,7.98
2023-04-01T13:47:30.780Z,7.99
2023-04-01T13:50:12.326Z,8.01
2023-04-01T13:53:33.084Z,8.05
2023-04-01T13:57:16.950Z,8.06
2023-04-01T14:00:24.524Z,8.05
2023-04-01T14:03:22.779Z,8.04
2023-04-01T14:06:08.593Z,8.01
2023-04-01T14:08:55.391Z,8.02
2023-04-01T14:12:14.895Z,8.03
2023-04-01T14:15:43.142Z,8.08
2023-04-01T14:18:35.521Z,8.13
2023-04-01T14:21:23.217Z,8.21
2023-04-01T14:23:58.552Z,8.30
2023-04-01T14:27:19.298Z,8.37
2023-04-01T14:30:28.461Z,8.48
2023-04-01T14:33:25.939Z,8.54
2023-04-01T14:36:45.005Z,8.60
2023-04-01T14:43:02.666Z,8.73
2023-04-01T14:46:35.169Z,8.74
2023-04-01T14:49:17.624Z,8.71
2023-04-01T14:51:46.578Z,8.67
2023-04-01T14:54:42.612Z,8.64
2023-04-01T14:58:27.717Z,8.61
2023-04-01T15:02:12.850Z,8.57
2023-04-01T15:05:33.077Z,8.52
2023-04-01T15:08:09.966Z,8.48
2023-04-01T15:11:02.947Z,8.46
2023-04-01T15:13:31.476Z,8.45
2023-04-01T15:17:03.630Z,8.46
2023-04-01T15:20:08.140Z,8.48
2023-04-01T15:23:26.686Z,8.50
2023-04-01T15:26:20.584Z,8.51
2023-04-01T15:29:18.102Z,8.50
2023-04-01T15:31:54.079Z,8.49
2023-04-01T15:35:28.033Z,8.47
2023-04-01T15:37:58.724Z,8.44
2023-04-01T15:40:34.378Z,8.41
2023-04-01T15:43:28.954Z,8.36
2023-04-01T15:46:11.806Z,8.32
2023-04-01T15:48:52.253Z,8.29
2023-04-01T15:51:47.561Z,8.26
2023-04-01T15:54:47.543Z,8.24
2023-04-01T15:57:52.883Z,8.22
2023-04-01T16:00:28.301Z,8.19
2023-04-01T16:03:46.347Z,8.15
2023-04-01T16:06:15.032Z,8.10
2023-04-01T16:16:57.929Z,7.97
2023-04-01T16:19:31.711Z,7.93
2023-04-01T16:22:58.086Z,7.89
2023-04-01T16:25:43.130Z,7.85
2023-04-01T16:28:33.389Z,7.84
2023-04-01T16:31:07.087Z,7.82
2023-04-01T16:37:22.581Z,7.77
2023-04-01T16:40:42.788Z,7.73
2023-04-01T16:44:02.294Z,7.70
2023-04-01T16:47:08.913Z,7.66
2023-04-01T16:50:38.935Z,7.64
2023-04-01T16:53:14.709Z,7.63
2023-04-01T16:56:11.574Z,7.61
2023-04-01T16:59:32.468Z,7.59
2023-04-01T17:02:12.776Z,7.57
2023-04-01T17:05:59.270Z,7.55
2023-04-01T17:09:19.311Z,7.52
2023-04-01T17:12:00.894Z,7.50
2023-04-01T17:14:53.652Z,7.48
2023-04-01T17:18:13.524Z,7.46
2023-04-01T17:21:32.589Z,7.44
2023-04-01T17:24:42.034Z,7.41
2023-04-01T17:27:42.801Z,7.39
2023-04-01T17:31:01.995Z,7.36
2023-04-01T17:34:05.146Z,7.30
2023-04-01T17:37:34.362Z,7.24
2023-04-01T17:40:47.485Z,7.18
2023-04-01T17:47:06.417Z,7.08
2023-04-01T17:54:20.190Z,7.00
2023-04-01T18:00:53.437Z,6.95
2023-04-01T18:04:09.779Z,6.90
2023-04-01T18:07:06.550Z,6.85
2023-04-01T18:09:41.979Z,6.79
2023-04-01T18:13:12.319Z,6.74
2023-04-01T18:16:15.282Z,6.64
2023-04-01T18:19:41.514Z,6.54
2023-04-01T18:22:27.509Z,6.47
2023-04-01T18:25:09.135Z,6.43
2023-04-01T18:27:41.207Z,6.37
2023-04-01T18:30:16.125Z,6.31
2023-04-01T18:32:59.509Z,6.25
2023-04-01T18:35:51.664Z,6.19
2023-04-01T18:38:27.616Z,6.14
2023-04-01T18:41:36.251Z,6.11
2023-04-01T18:44:35.858Z,6.08
2023-04-01T18:47:47.124Z,6.05
2023-04-01T18:51:22.515Z,6.03
2023-04-01T18:54:19.254Z,5.99
2023-04-01T18:57:16.661Z,5.98
2023-04-01T19:05:52.508Z,5.96
2023-04-01T19:09:39.596Z,5.96
2023-04-01T19:13:23.679Z,5.95
2023-04-01T19:17:08.589Z,5.95
2023-04-01T19:20:19.374Z,5.95
2023-04-01T19:23:12.900Z,5.93
2023-04-01T19:26:56.075Z,5.92
2023-04-01T19:30:03.672Z,5.89
2023-04-01T19:33:17.670Z,5.84
2023-04-01T19:43:01.966Z,5.72
2023-04-01T19:45:57.574Z,5.64
2023-04-01T19:48:30.593Z,5.57
2023-04-01T19:59:46.351Z,5.32
2023-04-01T20:02:24.315Z,5.23
2023-04-01T20:04:56.714Z,5.15
2023-04-01T20:07:29.282Z,5.09
2023-04-01T20:10:11.267Z,5.04
2023-04-01T20:13:54.891Z,5.00
2023-04-01T20:17:07.819Z,4.94
2023-04-01T20:19:45.411Z,4.90
2023-04-01T20:22:30.904Z,4.87
2023-04-01T20:25:45.680Z,4.84
2023-04-01T20:29:05.755Z,4.81
2023-04-01T20:32:07.242Z,4.78
2023-04-01T20:35:39.966Z,4.76
2023-04-01T20:38:34.550Z,4.75
2023-04-01T20:42:20.296Z,4.73
2023-04-01T20:45:10.386Z,4.75
2023-04-01T20:48:22.279Z,4.77
2023-04-01T20:50:52.882Z,4.79
2023-04-01T20:53:36.567Z,4.81
2023-04-01T20:59:59.534Z,4.88
2023-04-01T21:02:43.160Z,4.92
2023-04-01T21:05:48.209Z,4.96
2023-04-01T21:08:23.356Z,5.00
2023-04-01T21:11:26.797Z,5.02
2023-04-01T21:15:12.473Z,5.05
2023-04-01T21:18:32.667Z,5.08
2023-04-01T21:21:38.763Z,5.05
2023-04-01T21:24:57.531Z,5.03
2023-04-01T21:27:45.394Z,4.99
2023-04-01T21:31:31.569Z,4.94
2023-04-01T21:34:42.228Z,4.87
2023-04-01T21:40:37.580Z,4.79
2023-04-01T21:43:22.154Z,4.76
2023-04-01T21:46:18.996Z,4.73
2023-04-01T21:49:44.252Z,4.72
2023-04-01T21:52:15.982Z,4.70
2023-04-01T21:58:37.154Z,4.67
2023-04-01T22:01:24.436Z,4.67
2023-04-01T22:04:08.665Z,4.67
2023-04-01T22:10:19.019Z,4.66
2023-04-01T22:13:18.042Z,4.65
2023-04-01T22:16:37.944Z,4.63
2023-04-01T22:19:39.600Z,4.62
2023-04-01T22:22:43.365Z,4.62
2023-04-01T22:25:21.306Z,4.62
2023-04-01T22:27:57.222Z,4.61
2023-04-01T22:30:30.208Z,4.62
2023-04-01T22:33:49.735Z,4.62
2023-04-01T22:36:25.873Z,4.61
2023-04-01T22:39:22.864Z,4.58
2023-04-01T22:42:33.445Z,4.53
2023-04-01T22:45:14.046Z,4.49
2023-04-01T22:48:04.381Z,4.47
2023-04-01T22:50:58.730Z,4.44
2023-04-01T23:01:34.176Z,4.37
2023-04-01T23:04:02.560Z,4.32
2023-04-01T23:06:37.348Z,4.31
2023-04-01T23:09:18.698Z,4.29
2023-04-01T23:11:53.068Z,4.29
2023-04-01T23:14:21.966Z,4.28
2023-04-01T23:17:24.567Z,4.29
2023-04-01T23:20:31.443Z,4.31
2023-04-01T23:23:30.963Z,4.32
2023-04-01T23:26:16.128Z,4.32
2023-04-01T23:28:54.854Z,4.33
2023-04-01T23:31:38.244Z,4.33
2023-04-01T23:34:12.888Z,4.33
2023-04-01T23:36:51.208Z,4.33
2023-04-01T23:39:42.226Z,4.32
2023-04-01T23:42:28.929Z,4.32
2023-04-01T23:48:22.732Z,4.30
2023-04-01T23:50:51.121Z,4.29
2023-04-01T23:53:26.503Z,4.29
2023-04-01T23:55:55.917Z,4.29
2023-04-01T23:58:27.596Z,4.28
